Miles, Texas
Current Conditions -  °F | °C
As of 5:51 PM on Thursday 18 Dec 2014 (Local Time) from KSJT Reporting Station
Clear Clear  
Wind Chill: 60°   Ceiling: Unl
Heat Index: 60°   Visibility: 10mi
Dew Point: 38°   Wind: 6mph
Humidity: 44%   Direction: 70°ENE
Pressure: 30.04"   Gusts: NA
Location:  31.6°N, 100.18°W
Report Text: KSJT 182351Z 07005KT 10SM CLR 16/03 A3004 RMK AO2 SLP167 T01560033 10194 20156 55001
Loading
Personal Weather Stations






























Interactive Weather Map New forecast layout! Learn more

10-Day Weather Forecast

Advertisements
Track Severe Weather on mobile